sensor_id;sensor_type;location;lat;lon;timestamp;pressure;altitude;pressure_sealevel;temperature;humidity
46199;BME280;31928;52.104;10.030;2023-07-22T00:00:38;100212.69;;;21.03;46.39
46199;BME280;31928;52.104;10.030;2023-07-22T00:03:05;100214.84;;;21.01;46.89
46199;BME280;31928;52.104;10.030;2023-07-22T00:05:32;100214.06;;;21.01;46.59
46199;BME280;31928;52.104;10.030;2023-07-22T00:07:59;100214.84;;;21.01;46.80
46199;BME280;31928;52.104;10.030;2023-07-22T00:10:25;100213.22;;;21.00;46.83
46199;BME280;31928;52.104;10.030;2023-07-22T00:12:52;100215.16;;;21.00;46.41
46199;BME280;31928;52.104;10.030;2023-07-22T00:15:19;100205.91;;;20.96;46.46
46199;BME280;31928;52.104;10.030;2023-07-22T00:17:46;100204.03;;;20.91;46.72
46199;BME280;31928;52.104;10.030;2023-07-22T00:20:13;100204.06;;;20.86;47.04
46199;BME280;31928;52.104;10.030;2023-07-22T00:22:40;100209.56;;;20.81;46.98
46199;BME280;31928;52.104;10.030;2023-07-22T00:25:09;100205.75;;;20.77;47.40
46199;BME280;31928;52.104;10.030;2023-07-22T00:27:38;100207.97;;;20.70;47.30
46199;BME280;31928;52.104;10.030;2023-07-22T00:30:08;100212.59;;;20.70;47.16
46199;BME280;31928;52.104;10.030;2023-07-22T00:32:35;100213.47;;;20.60;47.32
46199;BME280;31928;52.104;10.030;2023-07-22T00:35:06;100220.56;;;20.56;47.51
46199;BME280;31928;52.104;10.030;2023-07-22T00:37:33;100219.50;;;20.52;47.80
46199;BME280;31928;52.104;10.030;2023-07-22T00:40:01;100214.06;;;20.48;47.81
46199;BME280;31928;52.104;10.030;2023-07-22T00:42:28;100218.44;;;20.49;47.72
46199;BME280;31928;52.104;10.030;2023-07-22T00:44:54;100228.53;;;20.48;47.52
46199;BME280;31928;52.104;10.030;2023-07-22T00:47:21;100227.97;;;20.51;47.92
46199;BME280;31928;52.104;10.030;2023-07-22T00:49:49;100226.59;;;20.53;47.64
46199;BME280;31928;52.104;10.030;2023-07-22T00:52:16;100215.41;;;20.55;47.80
46199;BME280;31928;52.104;10.030;2023-07-22T00:54:43;100216.22;;;20.55;47.43
46199;BME280;31928;52.104;10.030;2023-07-22T00:57:11;100214.03;;;20.57;47.33
46199;BME280;31928;52.104;10.030;2023-07-22T00:59:39;100211.59;;;20.56;47.38
46199;BME280;31928;52.104;10.030;2023-07-22T01:02:07;100211.59;;;20.56;47.41
46199;BME280;31928;52.104;10.030;2023-07-22T01:04:34;100209.16;;;20.54;47.42
46199;BME280;31928;52.104;10.030;2023-07-22T01:07:04;100211.03;;;20.59;47.48
46199;BME280;31928;52.104;10.030;2023-07-22T01:09:35;100216.47;;;20.59;47.59
46199;BME280;31928;52.104;10.030;2023-07-22T01:12:02;100209.13;;;20.59;47.29
46199;BME280;31928;52.104;10.030;2023-07-22T01:14:29;100207.47;;;20.63;47.28
46199;BME280;31928;52.104;10.030;2023-07-22T01:16:55;100209.06;;;20.64;47.07
46199;BME280;31928;52.104;10.030;2023-07-22T01:19:22;100209.91;;;20.65;47.22
46199;BME280;31928;52.104;10.030;2023-07-22T01:21:49;100204.47;;;20.65;46.95
46199;BME280;31928;52.104;10.030;2023-07-22T01:24:17;100210.72;;;20.65;47.27
46199;BME280;31928;52.104;10.030;2023-07-22T01:26:44;100214.53;;;20.64;47.00
46199;BME280;31928;52.104;10.030;2023-07-22T01:29:10;100218.63;;;20.62;46.94
46199;BME280;31928;52.104;10.030;2023-07-22T01:31:37;100214.56;;;20.59;46.88
46199;BME280;31928;52.104;10.030;2023-07-22T01:34:04;100220.56;;;20.56;47.28
46199;BME280;31928;52.104;10.030;2023-07-22T01:36:31;100221.44;;;20.52;47.10
46199;BME280;31928;52.104;10.030;2023-07-22T01:38:58;100219.81;;;20.46;47.31
46199;BME280;31928;52.104;10.030;2023-07-22T01:41:27;100217.41;;;20.40;47.46
46199;BME280;31928;52.104;10.030;2023-07-22T01:43:53;100215.25;;;20.32;47.70
46199;BME280;31928;52.104;10.030;2023-07-22T01:46:20;100213.13;;;20.24;47.66
46199;BME280;31928;52.104;10.030;2023-07-22T01:48:48;100212.59;;;20.17;47.69
46199;BME280;31928;52.104;10.030;2023-07-22T01:51:15;100219.16;;;20.11;47.86
46199;BME280;31928;52.104;10.030;2023-07-22T01:53:41;100218.34;;;20.05;48.13
46199;BME280;31928;52.104;10.030;2023-07-22T01:56:08;100223.56;;;20.02;47.98
46199;BME280;31928;52.104;10.030;2023-07-22T01:58:35;100221.66;;;19.97;48.16
46199;BME280;31928;52.104;10.030;2023-07-22T02:01:01;100225.75;;;19.95;48.44
46199;BME280;31928;52.104;10.030;2023-07-22T02:03:29;100226.31;;;19.92;48.67
46199;BME280;31928;52.104;10.030;2023-07-22T02:06:02;100226.00;;;19.98;47.92
46199;BME280;31928;52.104;10.030;2023-07-22T02:08:29;100224.09;;;19.94;48.85
46199;BME280;31928;52.104;10.030;2023-07-22T02:11:04;100218.63;;;20.04;47.89
46199;BME280;31928;52.104;10.030;2023-07-22T02:13:32;100221.91;;;20.01;48.74
46199;BME280;31928;52.104;10.030;2023-07-22T02:16:00;100239.88;;;20.07;48.50
46199;BME280;31928;52.104;10.030;2023-07-22T02:18:27;100228.13;;;20.11;48.53
46199;BME280;31928;52.104;10.030;2023-07-22T02:20:54;100239.81;;;20.17;48.35
46199;BME280;31928;52.104;10.030;2023-07-22T02:23:22;100246.88;;;20.23;48.58
46199;BME280;31928;52.104;10.030;2023-07-22T02:25:53;100244.16;;;20.28;47.74
46199;BME280;31928;52.104;10.030;2023-07-22T02:28:21;100248.47;;;20.34;47.77
46199;BME280;31928;52.104;10.030;2023-07-22T02:30:49;100243.00;;;20.39;47.71
46199;BME280;31928;52.104;10.030;2023-07-22T02:33:16;100242.97;;;20.44;47.49
46199;BME280;31928;52.104;10.030;2023-07-22T02:35:43;100244.03;;;20.48;47.45
46199;BME280;31928;52.104;10.030;2023-07-22T02:38:10;100245.09;;;20.51;47.52
46199;BME280;31928;52.104;10.030;2023-07-22T02:40:37;100247.28;;;20.54;47.50
46199;BME280;31928;52.104;10.030;2023-07-22T02:43:04;100248.34;;;20.58;46.89
46199;BME280;31928;52.104;10.030;2023-07-22T02:45:33;100249.16;;;20.59;46.76
46199;BME280;31928;52.104;10.030;2023-07-22T02:48:00;100247.53;;;20.58;46.50
46199;BME280;31928;52.104;10.030;2023-07-22T02:50:27;100247.84;;;20.51;46.36
46199;BME280;31928;52.104;10.030;2023-07-22T02:52:53;100247.34;;;20.45;47.02
46199;BME280;31928;52.104;10.030;2023-07-22T02:55:20;100255.53;;;20.35;46.62
46199;BME280;31928;52.104;10.030;2023-07-22T02:57:47;100253.69;;;20.25;46.72
46199;BME280;31928;52.104;10.030;2023-07-22T03:00:16;100260.00;;;20.16;47.11
46199;BME280;31928;52.104;10.030;2023-07-22T03:02:53;100252.13;;;20.04;47.08
46199;BME280;31928;52.104;10.030;2023-07-22T03:05:20;100249.16;;;19.96;46.98
46199;BME280;31928;52.104;10.030;2023-07-22T03:07:47;100254.56;;;19.86;47.43
46199;BME280;31928;52.104;10.030;2023-07-22T03:10:14;100252.41;;;19.78;47.37
46199;BME280;31928;52.104;10.030;2023-07-22T03:12:41;100259.50;;;19.69;47.57
46199;BME280;31928;52.104;10.030;2023-07-22T03:15:08;100255.72;;;19.60;47.38
46199;BME280;31928;52.104;10.030;2023-07-22T03:17:36;100262.78;;;19.51;47.79
46199;BME280;31928;52.104;10.030;2023-07-22T03:20:03;100271.50;;;19.43;48.14
46199;BME280;31928;52.104;10.030;2023-07-22T03:22:35;100267.69;;;19.34;47.92
46199;BME280;31928;52.104;10.030;2023-07-22T03:25:02;100274.22;;;19.28;48.20
46199;BME280;31928;52.104;10.030;2023-07-22T03:27:28;100272.03;;;19.21;48.92
46199;BME280;31928;52.104;10.030;2023-07-22T03:29:55;100273.94;;;19.15;48.24
46199;BME280;31928;52.104;10.030;2023-07-22T03:32:22;100268.22;;;19.12;49.02
46199;BME280;31928;52.104;10.030;2023-07-22T03:34:48;100268.78;;;19.09;48.92
46199;BME280;31928;52.104;10.030;2023-07-22T03:37:15;100274.22;;;19.09;48.88
46199;BME280;31928;52.104;10.030;2023-07-22T03:39:42;100279.66;;;19.09;48.52
46199;BME280;31928;52.104;10.030;2023-07-22T03:42:08;100279.38;;;19.10;48.73
46199;BME280;31928;52.104;10.030;2023-07-22T03:44:35;100281.56;;;19.48;46.65
46199;BME280;31928;52.104;10.030;2023-07-22T03:47:02;100284.25;;;19.18;48.60
46199;BME280;31928;52.104;10.030;2023-07-22T03:49:29;100281.81;;;19.17;48.89
46199;BME280;31928;52.104;10.030;2023-07-22T03:51:56;100282.66;;;19.17;48.78
46199;BME280;31928;52.104;10.030;2023-07-22T03:54:23;100282.66;;;19.17;49.28
46199;BME280;31928;52.104;10.030;2023-07-22T03:56:49;100285.09;;;19.19;48.74
46199;BME280;31928;52.104;10.030;2023-07-22T03:59:16;100288.34;;;19.21;48.89
46199;BME280;31928;52.104;10.030;2023-07-22T04:01:42;100285.09;;;19.58;46.46
46199;BME280;31928;52.104;10.030;2023-07-22T04:04:09;100295.69;;;19.35;48.50
46199;BME280;31928;52.104;10.030;2023-07-22T04:06:36;100291.63;;;19.32;48.50
46199;BME280;31928;52.104;10.030;2023-07-22T04:09:03;100290.53;;;19.33;48.37
46199;BME280;31928;52.104;10.030;2023-07-22T04:11:30;100281.28;;;19.34;48.88
46199;BME280;31928;52.104;10.030;2023-07-22T04:13:56;100295.69;;;19.35;48.90
46199;BME280;31928;52.104;10.030;2023-07-22T04:16:23;100293.81;;;19.35;49.00
46199;BME280;31928;52.104;10.030;2023-07-22T04:18:49;100299.78;;;19.37;48.79
46199;BME280;31928;52.104;10.030;2023-07-22T04:21:16;100295.16;;;19.38;48.85
46199;BME280;31928;52.104;10.030;2023-07-22T04:23:43;100298.16;;;19.36;49.02
46199;BME280;31928;52.104;10.030;2023-07-22T04:26:09;100299.75;;;19.72;47.01
46199;BME280;31928;52.104;10.030;2023-07-22T04:28:36;100298.41;;;19.40;49.40
46199;BME280;31928;52.104;10.030;2023-07-22T04:31:03;100298.69;;;19.33;48.65
46199;BME280;31928;52.104;10.030;2023-07-22T04:33:30;100296.78;;;19.29;49.04
46199;BME280;31928;52.104;10.030;2023-07-22T04:35:58;100298.72;;;19.63;46.86
46199;BME280;31928;52.104;10.030;2023-07-22T04:38:25;100305.22;;;19.28;49.09
46199;BME280;31928;52.104;10.030;2023-07-22T04:40:51;100299.22;;;19.21;49.40
46199;BME280;31928;52.104;10.030;2023-07-22T04:43:18;100302.22;;;19.19;49.51
46199;BME280;31928;52.104;10.030;2023-07-22T04:45:48;100296.25;;;19.17;49.33
46199;BME280;31928;52.104;10.030;2023-07-22T04:48:20;100302.50;;;19.23;49.04
46199;BME280;31928;52.104;10.030;2023-07-22T04:50:46;100303.00;;;19.20;49.19
46199;BME280;31928;52.104;10.030;2023-07-22T04:53:13;100307.94;;;19.23;49.39
46199;BME280;31928;52.104;10.030;2023-07-22T04:55:40;100308.47;;;19.25;49.58
46199;BME280;31928;52.104;10.030;2023-07-22T04:58:08;100315.53;;;19.30;49.33
46199;BME280;31928;52.104;10.030;2023-07-22T05:00:37;100317.19;;;19.36;48.87
46199;BME280;31928;52.104;10.030;2023-07-22T05:03:04;100320.44;;;19.43;49.22
46199;BME280;31928;52.104;10.030;2023-07-22T05:05:32;100316.66;;;19.49;49.05
46199;BME280;31928;52.104;10.030;2023-07-22T05:07:59;100322.63;;;19.56;48.94
46199;BME280;31928;52.104;10.030;2023-07-22T05:10:25;100313.38;;;19.62;49.14
46199;BME280;31928;52.104;10.030;2023-07-22T05:12:52;100310.66;;;19.67;48.57
46199;BME280;31928;52.104;10.030;2023-07-22T05:15:19;100313.38;;;19.72;48.90
46199;BME280;31928;52.104;10.030;2023-07-22T05:17:45;100318.28;;;19.75;48.60
46199;BME280;31928;52.104;10.030;2023-07-22T05:20:13;100315.28;;;19.77;48.45
46199;BME280;31928;52.104;10.030;2023-07-22T05:22:40;100312.28;;;19.78;48.16
46199;BME280;31928;52.104;10.030;2023-07-22T05:25:07;100315.56;;;19.80;48.48
46199;BME280;31928;52.104;10.030;2023-07-22T05:27:34;100304.69;;;19.80;48.14
46199;BME280;31928;52.104;10.030;2023-07-22T05:30:01;100306.28;;;19.81;48.84
46199;BME280;31928;52.104;10.030;2023-07-22T05:32:28;100318.53;;;19.84;48.61
46199;BME280;31928;52.104;10.030;2023-07-22T05:35:02;100325.31;;;19.86;48.21
46199;BME280;31928;52.104;10.030;2023-07-22T05:37:31;100323.16;;;19.88;48.53
46199;BME280;31928;52.104;10.030;2023-07-22T05:39:59;100320.16;;;19.89;48.66
46199;BME280;31928;52.104;10.030;2023-07-22T05:42:26;100329.72;;;19.92;48.06
46199;BME280;31928;52.104;10.030;2023-07-22T05:44:54;100331.88;;;19.95;48.56
46199;BME280;31928;52.104;10.030;2023-07-22T05:47:20;100329.16;;;19.95;48.21
46199;BME280;31928;52.104;10.030;2023-07-22T05:49:47;100331.59;;;19.96;48.33
46199;BME280;31928;52.104;10.030;2023-07-22T05:52:14;100320.72;;;19.96;48.47
46199;BME280;31928;52.104;10.030;2023-07-22T05:54:40;100320.72;;;19.96;48.08
46199;BME280;31928;52.104;10.030;2023-07-22T05:57:07;100331.06;;;19.99;47.67
46199;BME280;31928;52.104;10.030;2023-07-22T05:59:34;100326.44;;;20.00;48.08
46199;BME280;31928;52.104;10.030;2023-07-22T06:02:08;100327.22;;;20.05;47.74
46199;BME280;31928;52.104;10.030;2023-07-22T06:04:36;100330.50;;;20.02;47.81
46199;BME280;31928;52.104;10.030;2023-07-22T06:07:02;100332.16;;;20.03;47.94
46199;BME280;31928;52.104;10.030;2023-07-22T06:09:29;100337.88;;;20.07;47.92
46199;BME280;31928;52.104;10.030;2023-07-22T06:11:56;100338.94;;;20.11;47.73
46199;BME280;31928;52.104;10.030;2023-07-22T06:14:22;100340.31;;;20.13;48.18
46199;BME280;31928;52.104;10.030;2023-07-22T06:16:49;100336.22;;;20.16;47.85
46199;BME280;31928;52.104;10.030;2023-07-22T06:19:16;100345.72;;;20.18;47.62
46199;BME280;31928;52.104;10.030;2023-07-22T06:21:43;100348.19;;;20.20;47.76
46199;BME280;31928;52.104;10.030;2023-07-22T06:24:09;100339.19;;;20.24;47.44
46199;BME280;31928;52.104;10.030;2023-07-22T06:26:36;100337.81;;;20.27;47.17
46199;BME280;31928;52.104;10.030;2023-07-22T06:29:03;100334.53;;;20.30;47.61
46199;BME280;31928;52.104;10.030;2023-07-22T06:31:29;100331.00;;;20.34;47.84
46199;BME280;31928;52.104;10.030;2023-07-22T06:33:57;100337.50;;;20.38;47.34
46199;BME280;31928;52.104;10.030;2023-07-22T06:36:26;100333.13;;;20.42;47.16
46199;BME280;31928;52.104;10.030;2023-07-22T06:38:53;100342.09;;;20.43;47.05
46199;BME280;31928;52.104;10.030;2023-07-22T06:41:21;100333.94;;;20.43;46.66
46199;BME280;31928;52.104;10.030;2023-07-22T06:43:50;100342.09;;;20.43;47.31
46199;BME280;31928;52.104;10.030;2023-07-22T06:46:17;100339.94;;;20.40;46.86
46199;BME280;31928;52.104;10.030;2023-07-22T06:48:44;100340.22;;;20.38;46.79
46199;BME280;31928;52.104;10.030;2023-07-22T06:51:11;100342.16;;;20.33;47.05
46199;BME280;31928;52.104;10.030;2023-07-22T06:53:37;100348.97;;;20.30;47.32
46199;BME280;31928;52.104;10.030;2023-07-22T06:56:04;100348.69;;;20.27;47.62
46199;BME280;31928;52.104;10.030;2023-07-22T06:58:31;100350.06;;;20.24;47.62
46199;BME280;31928;52.104;10.030;2023-07-22T07:00:57;100353.06;;;20.23;48.05
46199;BME280;31928;52.104;10.030;2023-07-22T07:03:24;100357.72;;;20.22;48.07
46199;BME280;31928;52.104;10.030;2023-07-22T07:05:52;100356.06;;;20.21;47.86
46199;BME280;31928;52.104;10.030;2023-07-22T07:08:19;100348.72;;;20.22;47.75
46199;BME280;31928;52.104;10.030;2023-07-22T07:10:46;100353.88;;;20.23;48.04
46199;BME280;31928;52.104;10.030;2023-07-22T07:13:12;100360.97;;;20.24;47.62
46199;BME280;31928;52.104;10.030;2023-07-22T07:15:39;100361.50;;;20.26;47.50
46199;BME280;31928;52.104;10.030;2023-07-22T07:18:07;100353.59;;;20.25;47.81
46199;BME280;31928;52.104;10.030;2023-07-22T07:20:33;100361.22;;;20.28;48.67
46199;BME280;31928;52.104;10.030;2023-07-22T07:23:00;100351.97;;;20.29;48.09
46199;BME280;31928;52.104;10.030;2023-07-22T07:25:27;100349.78;;;20.31;47.14
46199;BME280;31928;52.104;10.030;2023-07-22T07:27:53;100353.06;;;20.33;47.50
46199;BME280;31928;52.104;10.030;2023-07-22T07:30:20;100359.88;;;20.30;47.62
46199;BME280;31928;52.104;10.030;2023-07-22T07:32:47;100360.94;;;20.34;47.34
46199;BME280;31928;52.104;10.030;2023-07-22T07:35:13;100361.47;;;20.36;47.60
46199;BME280;31928;52.104;10.030;2023-07-22T07:37:40;100358.50;;;20.38;47.66
46199;BME280;31928;52.104;10.030;2023-07-22T07:40:07;100360.66;;;20.41;47.44
46199;BME280;31928;52.104;10.030;2023-07-22T07:42:34;100364.97;;;20.47;48.00
46199;BME280;31928;52.104;10.030;2023-07-22T07:45:01;100368.25;;;20.53;47.39
46199;BME280;31928;52.104;10.030;2023-07-22T07:47:28;100363.59;;;20.59;47.70
46199;BME280;31928;52.104;10.030;2023-07-22T07:49:54;100366.28;;;20.64;46.75
46199;BME280;31928;52.104;10.030;2023-07-22T07:52:21;100364.34;;;20.69;46.54
46199;BME280;31928;52.104;10.030;2023-07-22T07:54:48;100366.28;;;20.74;46.54
46199;BME280;31928;52.104;10.030;2023-07-22T07:57:14;100368.16;;;20.78;46.74
46199;BME280;31928;52.104;10.030;2023-07-22T07:59:41;100373.88;;;20.82;46.35
46199;BME280;31928;52.104;10.030;2023-07-22T08:02:08;100371.69;;;20.84;46.17
46199;BME280;31928;52.104;10.030;2023-07-22T08:04:36;100376.31;;;20.88;45.94
46199;BME280;31928;52.104;10.030;2023-07-22T08:07:06;100376.28;;;20.93;45.90
46199;BME280;31928;52.104;10.030;2023-07-22T08:09:32;100382.25;;;20.95;45.83
46199;BME280;31928;52.104;10.030;2023-07-22T08:12:01;100388.84;;;20.94;45.75
46199;BME280;31928;52.104;10.030;2023-07-22T08:14:27;100388.78;;;20.99;45.78
46199;BME280;31928;52.104;10.030;2023-07-22T08:16:54;100371.34;;;21.00;45.91
46199;BME280;31928;52.104;10.030;2023-07-22T08:19:21;100378.97;;;21.03;46.20
46199;BME280;31928;52.104;10.030;2023-07-22T08:21:47;100377.84;;;21.04;45.88
46199;BME280;31928;52.104;10.030;2023-07-22T08:24:14;100380.59;;;21.04;45.91
46199;BME280;31928;52.104;10.030;2023-07-22T08:26:40;100382.78;;;21.07;45.59
46199;BME280;31928;52.104;10.030;2023-07-22T08:29:07;100383.28;;;21.09;45.49
46199;BME280;31928;52.104;10.030;2023-07-22T08:31:34;100379.47;;;21.10;45.52
46199;BME280;31928;52.104;10.030;2023-07-22T08:34:01;100383.25;;;21.14;45.81
46199;BME280;31928;52.104;10.030;2023-07-22T08:36:27;100377.25;;;21.17;45.94
46199;BME280;31928;52.104;10.030;2023-07-22T08:38:54;100383.75;;;21.21;46.04
46199;BME280;31928;52.104;10.030;2023-07-22T08:41:21;100373.66;;;21.26;46.13
46199;BME280;31928;52.104;10.030;2023-07-22T08:43:50;100374.44;;;21.32;46.04
46199;BME280;31928;52.104;10.030;2023-07-22T08:46:20;100383.09;;;21.39;45.79
46199;BME280;31928;52.104;10.030;2023-07-22T08:48:49;100384.72;;;21.45;46.18
46199;BME280;31928;52.104;10.030;2023-07-22T08:51:21;100386.88;;;21.53;45.84
46199;BME280;31928;52.104;10.030;2023-07-22T08:53:50;100389.31;;;21.54;45.38
46199;BME280;31928;52.104;10.030;2023-07-22T08:56:20;100393.38;;;21.57;45.37
46199;BME280;31928;52.104;10.030;2023-07-22T08:58:47;100393.66;;;21.60;45.33
46199;BME280;31928;52.104;10.030;2023-07-22T09:01:14;100386.53;;;21.59;45.19
46199;BME280;31928;52.104;10.030;2023-07-22T09:03:41;100384.88;;;21.63;44.74
46199;BME280;31928;52.104;10.030;2023-07-22T09:06:09;100391.69;;;21.66;45.88
46199;BME280;31928;52.104;10.030;2023-07-22T09:08:37;100381.31;;;21.68;45.88
46199;BME280;31928;52.104;10.030;2023-07-22T09:11:05;100379.06;;;21.74;44.82
46199;BME280;31928;52.104;10.030;2023-07-22T09:13:33;100381.75;;;21.79;44.89
46199;BME280;31928;52.104;10.030;2023-07-22T09:16:01;100372.41;;;21.90;43.81
46199;BME280;31928;52.104;10.030;2023-07-22T09:18:28;100373.34;;;22.04;44.96
46199;BME280;31928;52.104;10.030;2023-07-22T09:20:55;100377.88;;;22.19;44.32
46199;BME280;31928;52.104;10.030;2023-07-22T09:23:35;100368.69;;;22.38;44.18
46199;BME280;31928;52.104;10.030;2023-07-22T09:26:12;100369.63;;;22.52;44.41
46199;BME280;31928;52.104;10.030;2023-07-22T09:31:15;100369.13;;;22.68;43.03
46199;BME280;31928;52.104;10.030;2023-07-22T09:33:42;100367.75;;;22.71;42.55
46199;BME280;31928;52.104;10.030;2023-07-22T09:36:10;100372.09;;;22.72;42.75
46199;BME280;31928;52.104;10.030;2023-07-22T09:38:37;100368.78;;;22.75;42.80
46199;BME280;31928;52.104;10.030;2023-07-22T09:41:05;100367.19;;;22.74;41.89
46199;BME280;31928;52.104;10.030;2023-07-22T09:43:36;100363.78;;;22.82;42.78
46199;BME280;31928;52.104;10.030;2023-07-22T09:46:10;100368.06;;;22.88;43.14
46199;BME280;31928;52.104;10.030;2023-07-22T09:48:43;100361.19;;;22.90;43.16
46199;BME280;31928;52.104;10.030;2023-07-22T09:51:13;100361.97;;;22.96;42.53
46199;BME280;31928;52.104;10.030;2023-07-22T09:53:47;100358.00;;;23.06;42.07
46199;BME280;31928;52.104;10.030;2023-07-22T10:08:45;100357.22;;;23.61;41.57
46199;BME280;31928;52.104;10.030;2023-07-22T10:11:15;100366.28;;;23.57;40.69
46199;BME280;31928;52.104;10.030;2023-07-22T10:13:41;100353.13;;;23.58;41.00
46199;BME280;31928;52.104;10.030;2023-07-22T10:16:08;100347.06;;;23.61;41.50
46199;BME280;31928;52.104;10.030;2023-07-22T10:18:35;100347.28;;;23.65;41.62
46199;BME280;31928;52.104;10.030;2023-07-22T10:21:04;100339.88;;;23.65;41.20
46199;BME280;31928;52.104;10.030;2023-07-22T10:23:31;100347.72;;;23.72;40.93
46199;BME280;31928;52.104;10.030;2023-07-22T10:25:57;100354.47;;;23.79;41.02
46199;BME280;31928;52.104;10.030;2023-07-22T10:28:25;100350.22;;;23.87;39.90
46199;BME280;31928;52.104;10.030;2023-07-22T10:30:52;100356.34;;;23.97;39.60
46199;BME280;31928;52.104;10.030;2023-07-22T10:33:19;100366.53;;;24.10;39.95
46199;BME280;31928;52.104;10.030;2023-07-22T10:36:08;100347.25;;;24.28;40.84
46199;BME280;31928;52.104;10.030;2023-07-22T10:38:35;100349.59;;;24.35;39.26
46199;BME280;31928;52.104;10.030;2023-07-22T10:41:14;100349.75;;;24.43;38.71
46199;BME280;31928;52.104;10.030;2023-07-22T10:43:56;100354.41;;;24.43;38.43
46199;BME280;31928;52.104;10.030;2023-07-22T10:46:32;100342.03;;;24.45;39.04
46199;BME280;31928;52.104;10.030;2023-07-22T10:49:13;100346.94;;;24.48;39.12
46199;BME280;31928;52.104;10.030;2023-07-22T10:51:40;100346.50;;;24.41;38.72
46199;BME280;31928;52.104;10.030;2023-07-22T10:54:11;100338.78;;;24.43;38.65
46199;BME280;31928;52.104;10.030;2023-07-22T10:56:43;100346.50;;;24.41;38.07
46199;BME280;31928;52.104;10.030;2023-07-22T10:59:11;100323.97;;;24.44;39.06
46199;BME280;31928;52.104;10.030;2023-07-22T11:01:39;100338.19;;;24.46;38.52
46199;BME280;31928;52.104;10.030;2023-07-22T11:09:41;100332.59;;;24.78;37.93
46199;BME280;31928;52.104;10.030;2023-07-22T11:12:15;100316.88;;;24.70;38.12
46199;BME280;31928;52.104;10.030;2023-07-22T11:14:54;100320.09;;;24.72;38.89
46199;BME280;31928;52.104;10.030;2023-07-22T11:17:29;100313.91;;;24.67;37.90
46199;BME280;31928;52.104;10.030;2023-07-22T11:20:00;100308.63;;;24.70;38.40
46199;BME280;31928;52.104;10.030;2023-07-22T11:22:27;100305.28;;;24.73;38.27
46199;BME280;31928;52.104;10.030;2023-07-22T11:24:56;100303.84;;;24.76;36.81
46199;BME280;31928;52.104;10.030;2023-07-22T11:27:24;100309.53;;;24.79;36.57
46199;BME280;31928;52.104;10.030;2023-07-22T11:29:52;100297.31;;;24.85;36.33
46199;BME280;31928;52.104;10.030;2023-07-22T11:32:20;100287.34;;;24.89;36.96
46199;BME280;31928;52.104;10.030;2023-07-22T11:34:51;100286.03;;;25.00;36.64
46199;BME280;31928;52.104;10.030;2023-07-22T11:37:19;100274.41;;;25.03;35.36
46199;BME280;31928;52.104;10.030;2023-07-22T11:39:46;100278.72;;;25.09;34.70
46199;BME280;31928;52.104;10.030;2023-07-22T11:42:13;100277.06;;;25.21;35.11
46199;BME280;31928;52.104;10.030;2023-07-22T11:44:41;100270.69;;;25.34;35.57
46199;BME280;31928;52.104;10.030;2023-07-22T11:47:07;100274.59;;;25.42;34.54
46199;BME280;31928;52.104;10.030;2023-07-22T11:49:39;100272.94;;;25.54;35.26
46199;BME280;31928;52.104;10.030;2023-07-22T11:52:07;100261.03;;;25.58;35.06
46199;BME280;31928;52.104;10.030;2023-07-22T11:54:42;100271.63;;;25.73;34.74
46199;BME280;31928;52.104;10.030;2023-07-22T11:57:21;100265.88;;;25.83;34.54
46199;BME280;31928;52.104;10.030;2023-07-22T11:59:52;100262.63;;;25.81;33.71
46199;BME280;31928;52.104;10.030;2023-07-22T12:02:21;100254.25;;;25.86;34.04
46199;BME280;31928;52.104;10.030;2023-07-22T12:04:57;100260.47;;;26.00;34.84
46199;BME280;31928;52.104;10.030;2023-07-22T12:07:26;100257.78;;;26.08;34.12
46199;BME280;31928;52.104;10.030;2023-07-22T12:09:56;100258.31;;;26.19;34.11
46199;BME280;31928;52.104;10.030;2023-07-22T12:12:40;100265.00;;;26.35;34.96
46199;BME280;31928;52.104;10.030;2023-07-22T12:15:19;100257.38;;;26.32;33.72
46199;BME280;31928;52.104;10.030;2023-07-22T12:17:52;100256.25;;;26.33;34.37
46199;BME280;31928;52.104;10.030;2023-07-22T12:20:31;100258.41;;;26.36;34.55
46199;BME280;31928;52.104;10.030;2023-07-22T12:22:59;100251.38;;;26.30;33.98
46199;BME280;31928;52.104;10.030;2023-07-22T12:25:26;100255.75;;;26.31;33.97
46199;BME280;31928;52.104;10.030;2023-07-22T12:27:53;100259.63;;;26.30;33.33
46199;BME280;31928;52.104;10.030;2023-07-22T12:30:20;100256.41;;;26.28;34.00
46199;BME280;31928;52.104;10.030;2023-07-22T12:32:47;100261.72;;;26.24;33.35
46199;BME280;31928;52.104;10.030;2023-07-22T12:35:15;100256.34;;;26.19;33.27
46199;BME280;31928;52.104;10.030;2023-07-22T12:37:42;100247.75;;;26.12;33.14
46199;BME280;31928;52.104;10.030;2023-07-22T12:40:09;100241.09;;;26.05;33.08
46199;BME280;31928;52.104;10.030;2023-07-22T12:42:39;100248.03;;;26.03;33.95
46199;BME280;31928;52.104;10.030;2023-07-22T12:45:07;100250.91;;;25.98;34.54
46199;BME280;31928;52.104;10.030;2023-07-22T12:47:35;100245.88;;;25.91;34.11
46199;BME280;31928;52.104;10.030;2023-07-22T12:50:05;100244.38;;;25.85;33.64
46199;BME280;31928;52.104;10.030;2023-07-22T12:52:34;100244.53;;;25.80;33.85
46199;BME280;31928;52.104;10.030;2023-07-22T12:55:01;100246.59;;;25.75;34.01
46199;BME280;31928;52.104;10.030;2023-07-22T12:57:27;100239.50;;;25.74;34.02
46199;BME280;31928;52.104;10.030;2023-07-22T12:59:54;100251.16;;;25.79;33.73
46199;BME280;31928;52.104;10.030;2023-07-22T13:02:21;100240.03;;;25.84;34.04
46199;BME280;31928;52.104;10.030;2023-07-22T13:04:49;100231.66;;;25.89;33.80